createdAt,value
2018-11-22T00:01:55.125Z,58.04
2018-11-22T00:04:23.156Z,58.20
2018-11-22T00:06:51.229Z,58.97
2018-11-22T00:09:19.263Z,58.71
2018-11-22T00:11:47.331Z,58.82
2018-11-22T00:14:15.409Z,59.54
2018-11-22T00:16:43.460Z,58.33
2018-11-22T00:19:11.540Z,58.95
2018-11-22T00:21:39.568Z,59.83
2018-11-22T00:24:07.637Z,60.55
2018-11-22T00:26:35.682Z,59.15
2018-11-22T00:29:03.780Z,59.00
2018-11-22T00:31:31.866Z,58.52
2018-11-22T00:33:59.913Z,58.47
2018-11-22T00:36:27.995Z,58.66
2018-11-22T00:38:56.023Z,59.36
2018-11-22T00:41:24.083Z,60.78
2018-11-22T00:43:52.119Z,58.14
2018-11-22T00:46:20.209Z,58.99
2018-11-22T00:48:48.240Z,57.94
2018-11-22T00:51:16.307Z,58.25
2018-11-22T00:53:44.341Z,58.82
2018-11-22T00:56:12.475Z,59.45
2018-11-22T00:58:40.507Z,58.43
2018-11-22T01:01:08.570Z,58.79
2018-11-22T01:03:36.612Z,59.37
2018-11-22T01:06:04.858Z,60.17
2018-11-22T01:08:32.886Z,58.40
2018-11-22T01:11:00.950Z,57.41
2018-11-22T01:13:28.984Z,58.54
2018-11-22T01:15:57.071Z,57.56
2018-11-22T01:18:25.124Z,57.84
2018-11-22T01:20:53.202Z,58.89
2018-11-22T01:23:21.290Z,62.45
2018-11-22T01:25:49.326Z,59.48
2018-11-22T01:28:17.414Z,58.56
2018-11-22T01:30:45.470Z,58.94
2018-11-22T01:33:13.555Z,58.01
2018-11-22T01:35:41.639Z,58.67
2018-11-22T01:38:09.663Z,60.67
2018-11-22T01:40:37.792Z,58.77
2018-11-22T01:43:05.939Z,61.48
2018-11-22T01:45:34.019Z,59.74
2018-11-22T01:48:02.046Z,61.66
2018-11-22T01:50:30.079Z,60.35
2018-11-22T01:52:58.167Z,59.91
2018-11-22T01:55:26.262Z,60.01
2018-11-22T01:57:54.327Z,61.08
2018-11-22T02:00:24.514Z,60.64
2018-11-22T02:02:52.592Z,59.31
2018-11-22T02:05:22.002Z,59.79
2018-11-22T02:07:50.193Z,59.12
2018-11-22T02:10:19.381Z,60.18
2018-11-22T02:12:47.452Z,60.07
2018-11-22T02:15:17.003Z,59.89
2018-11-22T02:17:45.131Z,61.90
2018-11-22T02:20:15.172Z,61.98
2018-11-22T02:22:43.497Z,60.93
2018-11-22T02:25:12.548Z,61.53
2018-11-22T02:27:40.613Z,59.97
2018-11-22T02:30:10.986Z,61.21
2018-11-22T02:32:39.073Z,61.44
2018-11-22T02:35:08.380Z,61.88
2018-11-22T02:37:36.418Z,59.68
2018-11-22T02:40:04.972Z,60.92
2018-11-22T02:42:33.000Z,59.24
2018-11-22T02:45:01.124Z,58.88
2018-11-22T02:47:29.188Z,58.04
2018-11-22T02:49:57.269Z,59.73
2018-11-22T02:52:25.329Z,59.99
2018-11-22T02:54:53.415Z,58.40
2018-11-22T02:57:21.527Z,57.81
2018-11-22T02:59:49.575Z,58.76
2018-11-22T03:02:17.607Z,59.20
2018-11-22T03:04:45.676Z,59.08
2018-11-22T03:07:13.721Z,58.95
2018-11-22T03:09:41.811Z,57.95
2018-11-22T03:12:09.881Z,58.30
2018-11-22T03:14:37.909Z,61.63
2018-11-22T03:17:06.024Z,59.77
2018-11-22T03:19:34.167Z,58.77
2018-11-22T03:22:02.201Z,59.73
2018-11-22T03:24:30.263Z,58.57
2018-11-22T03:26:58.291Z,58.93
2018-11-22T03:29:26.392Z,58.36
2018-11-22T03:31:54.418Z,58.18
2018-11-22T03:34:22.474Z,58.07
2018-11-22T03:36:50.541Z,57.79
2018-11-22T03:39:18.653Z,58.29
2018-11-22T03:41:46.735Z,57.83
2018-11-22T03:44:14.811Z,59.66
2018-11-22T03:46:42.882Z,58.80
2018-11-22T03:49:10.926Z,58.10
2018-11-22T03:51:39.005Z,58.86
2018-11-22T03:54:07.076Z,58.25
2018-11-22T03:56:35.114Z,59.63
2018-11-22T03:59:03.202Z,59.13
2018-11-22T04:01:31.288Z,58.62
2018-11-22T04:03:59.356Z,59.15
2018-11-22T04:06:27.432Z,58.89
2018-11-22T04:08:55.477Z,60.05
2018-11-22T04:11:23.552Z,58.83
2018-11-22T04:13:51.599Z,58.46
2018-11-22T04:16:19.665Z,58.45
2018-11-22T04:18:47.677Z,58.15
2018-11-22T04:21:15.748Z,59.41
2018-11-22T04:23:43.783Z,59.00
2018-11-22T04:26:11.872Z,59.09
2018-11-22T04:28:39.915Z,58.37
2018-11-22T04:31:07.941Z,58.46
2018-11-22T04:33:35.995Z,58.41
2018-11-22T04:36:04.106Z,57.25
2018-11-22T04:38:32.175Z,57.46
2018-11-22T04:41:00.181Z,57.20
2018-11-22T04:43:28.219Z,59.47
2018-11-22T04:45:56.280Z,58.63
2018-11-22T04:48:24.316Z,58.05
2018-11-22T04:50:52.394Z,58.26
2018-11-22T04:53:20.440Z,58.97
2018-11-22T04:55:48.540Z,60.11
2018-11-22T04:58:16.674Z,58.95
2018-11-22T05:00:44.705Z,59.65
2018-11-22T05:03:12.903Z,58.66
2018-11-22T05:05:41.028Z,58.31
2018-11-22T05:08:09.118Z,57.99
2018-11-22T05:10:37.152Z,58.42
2018-11-22T05:13:05.298Z,59.51
2018-11-22T05:15:33.350Z,59.56
2018-11-22T05:18:01.390Z,58.32
2018-11-22T05:20:29.463Z,59.07
2018-11-22T05:22:57.509Z,58.95
2018-11-22T05:25:25.578Z,58.38
2018-11-22T05:27:53.602Z,57.75
2018-11-22T05:30:23.258Z,57.73
2018-11-22T05:32:51.307Z,58.41
2018-11-22T05:35:19.816Z,57.87
2018-11-22T05:37:47.893Z,58.63
2018-11-22T05:40:35.054Z,58.32
2018-11-22T05:43:03.191Z,58.94
2018-11-22T05:45:31.545Z,59.37
2018-11-22T05:47:59.615Z,59.71
2018-11-22T05:50:28.915Z,59.03
2018-11-22T05:52:58.566Z,58.72
2018-11-22T05:55:26.639Z,59.42
2018-11-22T05:57:54.929Z,59.35
2018-11-22T06:00:24.547Z,59.48
2018-11-22T06:02:52.899Z,60.32
2018-11-22T06:05:22.433Z,60.85
2018-11-22T06:07:50.693Z,59.55
2018-11-22T06:10:22.983Z,59.48
2018-11-22T06:12:51.752Z,59.56
2018-11-22T06:15:20.051Z,59.34
2018-11-22T06:17:48.821Z,60.39
2018-11-22T06:20:18.456Z,60.13
2018-11-22T06:22:46.596Z,59.62
2018-11-22T06:25:15.852Z,59.48
2018-11-22T06:27:44.121Z,59.32
2018-11-22T06:30:32.457Z,59.06
2018-11-22T06:33:01.668Z,59.30
2018-11-22T06:35:30.424Z,60.32
2018-11-22T06:37:58.750Z,60.17
2018-11-22T06:40:26.820Z,60.38
2018-11-22T06:42:55.778Z,61.40
2018-11-22T06:45:25.334Z,59.95
2018-11-22T06:47:53.361Z,59.14
2018-11-22T06:50:22.295Z,59.20
2018-11-22T06:52:50.340Z,59.54
2018-11-22T06:55:19.984Z,59.42
2018-11-22T06:57:48.041Z,61.19
2018-11-22T07:00:17.780Z,60.90
2018-11-22T07:02:46.228Z,60.07
2018-11-22T07:05:15.040Z,59.36
2018-11-22T07:07:43.130Z,59.86
2018-11-22T07:10:12.501Z,59.95
2018-11-22T07:12:40.628Z,58.73
2018-11-22T07:15:09.378Z,60.64
2018-11-22T07:17:37.688Z,60.69
2018-11-22T07:20:08.445Z,59.63
2018-11-22T07:22:36.503Z,59.39
2018-11-22T07:25:05.972Z,58.73
2018-11-22T07:27:38.261Z,59.08
2018-11-22T07:30:02.078Z,59.69
2018-11-22T07:32:30.162Z,58.72
2018-11-22T07:34:58.203Z,58.85
2018-11-22T07:37:26.286Z,59.07
2018-11-22T07:39:54.367Z,60.15
2018-11-22T07:42:22.432Z,59.25
2018-11-22T07:45:11.439Z,59.14
2018-11-22T07:47:39.789Z,59.90
2018-11-22T07:50:09.731Z,59.49
2018-11-22T07:52:37.797Z,58.73
2018-11-22T07:55:08.039Z,59.18
2018-11-22T07:57:36.045Z,59.66
2018-11-22T08:00:04.925Z,61.06
2018-11-22T08:02:32.972Z,60.27
2018-11-22T08:05:01.016Z,60.08
2018-11-22T08:07:29.104Z,60.50
2018-11-22T08:09:57.170Z,60.11
2018-11-22T08:12:25.998Z,60.00
2018-11-22T08:14:53.323Z,59.40
2018-11-22T08:17:21.386Z,59.37
2018-11-22T08:19:49.452Z,59.08
2018-11-22T08:22:17.476Z,59.12
2018-11-22T08:24:45.568Z,58.52
2018-11-22T08:27:13.601Z,58.93
2018-11-22T08:29:41.672Z,58.89
2018-11-22T08:32:09.728Z,59.42
2018-11-22T08:34:37.802Z,59.33
2018-11-22T08:37:05.963Z,59.78
2018-11-22T08:39:34.062Z,59.60
2018-11-22T08:42:02.127Z,58.76
2018-11-22T08:44:30.199Z,58.06
2018-11-22T08:46:58.324Z,59.01
2018-11-22T08:49:26.363Z,59.82
2018-11-22T08:51:54.436Z,59.51
2018-11-22T08:54:22.519Z,59.45
2018-11-22T08:56:50.597Z,58.72
2018-11-22T08:59:18.681Z,59.79
2018-11-22T09:01:47.565Z,58.16
2018-11-22T09:04:15.670Z,59.00
2018-11-22T09:06:43.709Z,58.26
2018-11-22T09:09:12.381Z,58.11
2018-11-22T09:11:41.010Z,58.58
2018-11-22T09:14:09.041Z,57.77
2018-11-22T09:16:37.130Z,57.24
2018-11-22T09:19:05.195Z,57.61
2018-11-22T09:21:33.296Z,57.52
2018-11-22T09:24:01.318Z,57.89
2018-11-22T09:26:29.433Z,58.43
2018-11-22T09:28:57.478Z,57.63
2018-11-22T09:31:25.572Z,57.65
2018-11-22T09:33:53.553Z,56.94
2018-11-22T09:36:21.652Z,57.28
2018-11-22T09:38:49.716Z,57.00
2018-11-22T09:41:17.762Z,58.13
2018-11-22T09:43:45.842Z,59.28
2018-11-22T09:46:13.921Z,59.01
2018-11-22T09:48:42.096Z,58.78
2018-11-22T09:51:10.110Z,57.35
2018-11-22T09:53:38.151Z,58.26
2018-11-22T09:56:06.540Z,57.97
2018-11-22T09:58:34.595Z,57.50
2018-11-22T10:01:02.667Z,57.32
2018-11-22T10:03:30.763Z,57.48
2018-11-22T10:05:58.856Z,58.63
2018-11-22T10:08:46.011Z,58.01
2018-11-22T10:11:14.093Z,58.32
2018-11-22T10:13:42.199Z,57.76
2018-11-22T10:16:10.257Z,58.21
2018-11-22T10:18:39.026Z,56.84
2018-11-22T10:21:07.089Z,56.73
2018-11-22T10:23:35.193Z,57.76
2018-11-22T10:26:03.235Z,57.62
2018-11-22T10:28:31.306Z,57.66
2018-11-22T10:30:59.356Z,57.72
2018-11-22T10:33:27.447Z,58.58
2018-11-22T10:35:55.539Z,59.13
2018-11-22T10:38:23.746Z,57.33
2018-11-22T10:40:51.764Z,57.22
2018-11-22T10:43:19.794Z,58.25
2018-11-22T10:45:47.872Z,57.97
2018-11-22T10:48:15.898Z,58.71
2018-11-22T10:50:43.973Z,57.84
2018-11-22T10:53:12.025Z,58.12
2018-11-22T10:55:41.655Z,58.36
2018-11-22T10:58:09.700Z,57.96
2018-11-22T11:00:56.929Z,57.88
2018-11-22T11:03:44.144Z,58.15
2018-11-22T11:06:31.436Z,58.94
2018-11-22T11:08:59.744Z,58.31
2018-11-22T11:11:27.989Z,58.71
2018-11-22T11:13:56.226Z,57.31
2018-11-22T11:16:24.366Z,57.46
2018-11-22T11:18:52.620Z,57.58
2018-11-22T11:21:20.696Z,56.35
2018-11-22T11:23:48.764Z,57.46
2018-11-22T11:26:16.863Z,57.44
2018-11-22T11:28:44.913Z,57.12
2018-11-22T11:31:13.016Z,57.09
2018-11-22T11:33:41.057Z,56.81
2018-11-22T11:36:09.247Z,57.48
2018-11-22T11:38:37.412Z,57.51
2018-11-22T11:41:05.759Z,57.96
2018-11-22T11:43:33.876Z,58.06
2018-11-22T11:46:01.947Z,57.59
2018-11-22T11:48:30.006Z,56.54
2018-11-22T11:50:58.064Z,56.90
2018-11-22T11:53:41.000Z,56.29
2018-11-22T11:55:54.364Z,56.87
2018-11-22T11:58:22.407Z,56.26
2018-11-22T12:00:50.558Z,57.17
2018-11-22T12:03:18.639Z,57.00
2018-11-22T12:05:46.837Z,56.94
2018-11-22T12:08:14.954Z,57.56
2018-11-22T12:10:43.066Z,56.52
2018-11-22T12:13:11.114Z,57.03
2018-11-22T12:15:39.197Z,56.80
2018-11-22T12:18:07.489Z,57.21
2018-11-22T12:20:35.528Z,56.62
2018-11-22T12:23:03.636Z,57.12
2018-11-22T12:25:31.691Z,56.79
2018-11-22T12:28:00.996Z,57.59
2018-11-22T12:30:30.492Z,56.57
2018-11-22T12:32:59.389Z,56.10
2018-11-22T12:35:46.571Z,56.75
2018-11-22T12:38:33.883Z,56.68
2018-11-22T12:41:01.916Z,57.45
2018-11-22T12:43:30.025Z,57.18
2018-11-22T12:45:58.069Z,57.02
2018-11-22T12:48:26.150Z,56.95
2018-11-22T12:50:54.243Z,58.01
2018-11-22T12:53:22.289Z,57.80
2018-11-22T12:55:50.363Z,57.33
2018-11-22T12:58:18.458Z,57.30
2018-11-22T13:00:46.551Z,57.27
2018-11-22T13:03:14.610Z,57.21
2018-11-22T13:05:42.673Z,56.79
2018-11-22T13:08:10.729Z,57.95
2018-11-22T13:10:38.842Z,56.91
2018-11-22T13:13:07.056Z,57.31
2018-11-22T13:15:35.128Z,57.53
2018-11-22T13:18:03.224Z,56.85
2018-11-22T13:20:31.268Z,57.04
2018-11-22T13:22:59.382Z,57.01
2018-11-22T13:25:27.466Z,56.28
2018-11-22T13:27:55.616Z,55.72
2018-11-22T13:30:25.037Z,56.47
2018-11-22T13:32:53.769Z,55.59
2018-11-22T13:35:22.001Z,56.18
2018-11-22T13:37:51.413Z,56.62
2018-11-22T13:40:19.639Z,56.79
2018-11-22T13:42:48.692Z,57.05
2018-11-22T13:45:19.449Z,56.23
2018-11-22T13:47:48.219Z,56.17
2018-11-22T13:50:18.726Z,56.08
2018-11-22T13:52:48.173Z,56.43
2018-11-22T13:55:16.223Z,55.50
2018-11-22T13:57:44.332Z,55.18
2018-11-22T14:00:32.706Z,56.22
2018-11-22T14:03:19.891Z,56.06
2018-11-22T14:06:00.291Z,56.33
2018-11-22T14:08:28.383Z,56.02
2018-11-22T14:11:04.065Z,56.41
2018-11-22T14:13:32.164Z,56.99
2018-11-22T14:16:00.216Z,57.23
2018-11-22T14:18:28.292Z,56.53
2018-11-22T14:20:56.344Z,56.22
2018-11-22T14:23:24.426Z,56.20
2018-11-22T14:25:52.499Z,56.70
2018-11-22T14:28:20.594Z,56.36
2018-11-22T14:30:48.667Z,56.72
2018-11-22T14:33:16.759Z,56.98
2018-11-22T14:35:44.798Z,57.11
2018-11-22T14:38:12.857Z,56.88
2018-11-22T14:40:40.922Z,57.01
2018-11-22T14:43:08.978Z,56.90
2018-11-22T14:45:37.034Z,56.38
2018-11-22T14:48:05.402Z,56.25
2018-11-22T14:51:03.903Z,56.55
2018-11-22T14:53:32.041Z,56.22
2018-11-22T14:56:00.083Z,56.65
2018-11-22T14:58:28.189Z,56.40
2018-11-22T15:00:56.285Z,57.20
2018-11-22T15:03:24.338Z,56.82
2018-11-22T15:05:52.416Z,56.45
2018-11-22T15:08:20.461Z,56.23
2018-11-22T15:10:48.539Z,56.49
2018-11-22T15:13:16.585Z,56.81
2018-11-22T15:15:44.667Z,57.33
2018-11-22T15:18:12.708Z,57.02
2018-11-22T15:20:40.806Z,56.43
2018-11-22T15:23:08.912Z,56.93
2018-11-22T15:25:36.977Z,56.42
2018-11-22T15:28:05.070Z,56.56
2018-11-22T15:30:33.185Z,56.10
2018-11-22T15:33:01.320Z,56.89
2018-11-22T15:35:30.333Z,57.19
2018-11-22T15:37:58.401Z,56.69
2018-11-22T15:40:26.882Z,56.94
2018-11-22T15:42:56.373Z,56.20
2018-11-22T15:45:25.734Z,56.16
2018-11-22T15:47:53.758Z,55.95
2018-11-22T15:50:23.176Z,57.05
2018-11-22T15:52:51.235Z,57.29
2018-11-22T15:55:21.018Z,56.95
2018-11-22T15:57:48.958Z,57.32
2018-11-22T16:00:36.321Z,57.13
2018-11-22T16:03:04.541Z,57.10
2018-11-22T16:05:33.099Z,56.47
2018-11-22T16:08:01.530Z,56.44
2018-11-22T16:10:31.232Z,56.60
2018-11-22T16:13:00.940Z,56.35
2018-11-22T16:15:34.220Z,56.33
2018-11-22T16:18:02.314Z,55.98
2018-11-22T16:20:30.374Z,55.70
2018-11-22T16:22:58.454Z,56.37
2018-11-22T16:25:26.532Z,56.62
2018-11-22T16:27:54.639Z,57.07
2018-11-22T16:30:24.118Z,57.61
2018-11-22T16:32:52.519Z,57.69
2018-11-22T16:35:21.388Z,56.71
2018-11-22T16:37:49.496Z,57.39
2018-11-22T16:40:36.690Z,57.27
2018-11-22T16:43:04.968Z,57.07
2018-11-22T16:45:34.468Z,57.31
2018-11-22T16:48:04.125Z,57.25
2018-11-22T16:50:33.168Z,57.48
2018-11-22T16:53:01.272Z,57.30
2018-11-22T16:55:29.354Z,58.26
2018-11-22T16:57:58.786Z,57.97
2018-11-22T17:00:28.148Z,57.76
2018-11-22T17:02:57.792Z,57.81
2018-11-22T17:05:26.081Z,58.67
2018-11-22T17:07:54.180Z,57.97
2018-11-22T17:10:23.778Z,57.72
2018-11-22T17:12:53.253Z,57.73
2018-11-22T17:15:22.692Z,58.00
2018-11-22T17:17:51.240Z,57.93
2018-11-22T17:20:20.163Z,57.69
2018-11-22T17:22:48.912Z,57.45
2018-11-22T17:25:18.350Z,57.08
2018-11-22T17:27:47.463Z,57.59
2018-11-22T17:30:34.763Z,57.59
2018-11-22T17:33:02.850Z,58.18
2018-11-22T17:35:31.447Z,57.73
2018-11-22T17:38:00.614Z,58.03
2018-11-22T17:40:47.870Z,58.07
2018-11-22T17:43:16.022Z,57.52
2018-11-22T17:45:45.511Z,58.21
2018-11-22T17:48:13.622Z,57.45
2018-11-22T17:50:43.141Z,56.83
2018-11-22T17:53:30.762Z,57.24
2018-11-22T17:55:58.908Z,56.90
2018-11-22T17:58:27.573Z,56.30
2018-11-22T18:00:55.763Z,57.72
2018-11-22T18:03:23.845Z,56.81
2018-11-22T18:05:52.447Z,56.91
2018-11-22T18:08:20.615Z,57.32
2018-11-22T18:10:48.714Z,57.62
2018-11-22T18:13:16.805Z,59.18
2018-11-22T18:16:04.068Z,58.04
2018-11-22T18:18:32.164Z,57.72
2018-11-22T18:21:00.221Z,57.01
2018-11-22T18:23:28.453Z,56.71
2018-11-22T18:25:56.528Z,56.71
2018-11-22T18:28:24.595Z,57.28
2018-11-22T18:30:52.817Z,56.48
2018-11-22T18:33:20.910Z,56.80
2018-11-22T18:35:49.052Z,57.28
2018-11-22T18:38:17.123Z,58.60
2018-11-22T18:40:45.352Z,57.25
2018-11-22T18:43:13.466Z,57.67
2018-11-22T18:45:42.940Z,56.75
2018-11-22T18:48:12.598Z,56.84
2018-11-22T18:50:41.113Z,56.58
2018-11-22T18:53:09.456Z,56.63
2018-11-22T18:55:37.553Z,57.48
2018-11-22T18:58:06.250Z,56.68
2018-11-22T19:00:35.758Z,57.01
2018-11-22T19:03:05.913Z,56.80
2018-11-22T19:05:34.011Z,58.65
2018-11-22T19:08:02.124Z,57.38
2018-11-22T19:10:31.594Z,58.44
2018-11-22T19:13:01.039Z,58.34
2018-11-22T19:15:30.332Z,57.63
2018-11-22T19:17:58.649Z,58.10
2018-11-22T19:20:29.155Z,58.30
2018-11-22T19:22:57.946Z,57.83
2018-11-22T19:25:26.077Z,57.80
2018-11-22T19:28:13.379Z,58.86
2018-11-22T19:30:42.956Z,57.65
2018-11-22T19:33:12.708Z,57.75
2018-11-22T19:35:42.577Z,57.45
2018-11-22T19:38:10.797Z,57.47
2018-11-22T19:40:39.517Z,59.16
2018-11-22T19:43:08.547Z,60.30
2018-11-22T19:45:38.109Z,59.73
2018-11-22T19:48:06.754Z,58.69
2018-11-22T19:50:35.147Z,58.29
2018-11-22T19:53:04.445Z,57.73
2018-11-22T19:55:33.553Z,56.97
2018-11-22T19:58:20.805Z,56.67
2018-11-22T20:00:49.098Z,56.92
2018-11-22T20:03:17.140Z,56.98
2018-11-22T20:05:45.310Z,57.00
2018-11-22T20:08:15.194Z,57.33
2018-11-22T20:10:44.330Z,56.85
2018-11-22T20:13:12.453Z,57.18
2018-11-22T20:15:40.562Z,57.70
2018-11-22T20:18:10.124Z,57.94
2018-11-22T20:20:38.224Z,56.98
2018-11-22T20:23:06.419Z,58.03
2018-11-22T20:25:35.148Z,57.83
2018-11-22T20:28:03.169Z,58.21
2018-11-22T20:30:50.444Z,57.21
2018-11-22T20:33:18.594Z,57.95
2018-11-22T20:35:46.898Z,57.34
2018-11-22T20:38:15.160Z,57.52
2018-11-22T20:40:43.407Z,57.71
2018-11-22T20:43:11.510Z,57.35
2018-11-22T20:45:41.093Z,57.43
2018-11-22T20:48:08.099Z,58.22
2018-11-22T20:50:36.731Z,58.24
2018-11-22T20:53:05.147Z,58.09
2018-11-22T20:55:34.783Z,58.20
2018-11-22T20:58:04.371Z,58.05
2018-11-22T21:00:33.960Z,57.89
2018-11-22T21:03:02.036Z,58.65
2018-11-22T21:05:30.687Z,57.99
2018-11-22T21:07:58.777Z,58.48
2018-11-22T21:10:28.142Z,58.82
2018-11-22T21:12:56.424Z,57.89
2018-11-22T21:15:25.817Z,58.08
2018-11-22T21:17:55.731Z,58.13
2018-11-22T21:20:42.987Z,58.34
2018-11-22T21:23:11.131Z,58.33
2018-11-22T21:25:39.200Z,58.70
2018-11-22T21:28:07.354Z,58.48
2018-11-22T21:30:36.888Z,58.50
2018-11-22T21:33:04.996Z,57.80
2018-11-22T21:35:33.463Z,58.52
2018-11-22T21:38:02.429Z,57.91
2018-11-22T21:40:31.182Z,57.74
2018-11-22T21:42:59.210Z,57.64
2018-11-22T21:45:27.718Z,57.53
2018-11-22T21:47:55.864Z,57.78
2018-11-22T21:50:25.235Z,57.19
2018-11-22T21:52:53.288Z,57.50
2018-11-22T21:55:22.747Z,57.54
2018-11-22T21:57:51.690Z,57.22
2018-11-22T22:00:40.816Z,57.22
2018-11-22T22:03:10.379Z,57.30
2018-11-22T22:05:39.113Z,57.10
2018-11-22T22:08:07.753Z,58.10
2018-11-22T22:10:35.911Z,57.87
2018-11-22T22:13:04.122Z,57.61
2018-11-22T22:15:33.289Z,58.03
2018-11-22T22:18:01.535Z,57.94
2018-11-22T22:20:31.007Z,58.07
2018-11-22T22:22:59.830Z,58.71
2018-11-22T22:25:27.628Z,59.15
2018-11-22T22:27:56.137Z,58.05
2018-11-22T22:30:43.361Z,57.99
2018-11-22T22:33:11.469Z,58.10
2018-11-22T22:35:39.557Z,58.73
2018-11-22T22:38:07.655Z,59.02
2018-11-22T22:40:35.721Z,58.80
2018-11-22T22:43:03.793Z,58.24
2018-11-22T22:45:32.604Z,59.11
2018-11-22T22:48:00.696Z,58.16
2018-11-22T22:50:29.665Z,58.42
2018-11-22T22:52:58.904Z,57.83
2018-11-22T22:55:27.394Z,57.72
2018-11-22T22:57:55.430Z,59.04
2018-11-22T23:00:43.665Z,58.53
2018-11-22T23:03:11.770Z,58.17
2018-11-22T23:05:39.976Z,58.20
2018-11-22T23:08:08.040Z,57.70
2018-11-22T23:10:36.136Z,57.86
2018-11-22T23:13:04.417Z,57.61
2018-11-22T23:15:32.637Z,57.87
2018-11-22T23:18:00.727Z,57.49
2018-11-22T23:20:47.914Z,57.51
2018-11-22T23:23:16.049Z,57.25
2018-11-22T23:25:44.100Z,56.91
2018-11-22T23:28:12.239Z,57.44
2018-11-22T23:30:40.285Z,57.33
2018-11-22T23:33:08.994Z,57.52
2018-11-22T23:35:37.047Z,57.85
2018-11-22T23:38:05.130Z,57.31
2018-11-22T23:40:33.905Z,58.36
2018-11-22T23:43:02.000Z,57.74
2018-11-22T23:45:31.188Z,57.47
2018-11-22T23:47:59.253Z,58.18
2018-11-22T23:50:28.665Z,57.68
2018-11-22T23:52:57.636Z,57.94
2018-11-22T23:55:25.707Z,59.13
2018-11-22T23:57:53.767Z,57.98
